createdAt,value
2018-11-02T00:00:54.794Z,1.90
2018-11-02T00:01:54.851Z,2.20
2018-11-02T00:02:54.908Z,2.30
2018-11-02T00:03:54.966Z,1.70
2018-11-02T00:04:55.023Z,1.50
2018-11-02T00:05:55.079Z,1.30
2018-11-02T00:06:55.137Z,1.70
2018-11-02T00:07:55.194Z,1.80
2018-11-02T00:08:55.252Z,1.90
2018-11-02T00:09:55.308Z,1.90
2018-11-02T00:10:55.367Z,1.80
2018-11-02T00:11:55.430Z,1.90
2018-11-02T00:12:55.482Z,1.90
2018-11-02T00:13:55.537Z,1.40
2018-11-02T00:14:55.597Z,1.30
2018-11-02T00:15:55.669Z,1.30
2018-11-02T00:16:55.711Z,1.10
2018-11-02T00:17:55.767Z,1.50
2018-11-02T00:18:55.849Z,1.00
2018-11-02T00:19:55.884Z,1.00
2018-11-02T00:20:55.943Z,0.90
2018-11-02T00:21:55.996Z,0.90
2018-11-02T00:22:56.056Z,1.70
2018-11-02T00:23:56.111Z,1.40
2018-11-02T00:24:56.187Z,1.60
2018-11-02T00:25:56.227Z,1.40
2018-11-02T00:26:56.284Z,1.60
2018-11-02T00:27:56.341Z,1.30
2018-11-02T00:28:56.401Z,1.20
2018-11-02T00:29:56.456Z,1.30
2018-11-02T00:30:56.514Z,1.40
2018-11-02T00:31:56.668Z,1.00
2018-11-02T00:32:56.631Z,1.10
2018-11-02T00:33:56.689Z,1.10
2018-11-02T00:34:56.756Z,1.20
2018-11-02T00:35:56.802Z,1.00
2018-11-02T00:36:56.861Z,1.10
2018-11-02T00:37:56.916Z,1.30
2018-11-02T00:38:56.974Z,1.20
2018-11-02T00:39:57.035Z,1.20
2018-11-02T00:40:57.090Z,1.20
2018-11-02T00:41:57.145Z,1.10
2018-11-02T00:42:57.207Z,1.00
2018-11-02T00:43:57.281Z,1.00
2018-11-02T00:44:57.319Z,0.90
2018-11-02T00:45:57.378Z,0.80
2018-11-02T00:46:57.434Z,0.90
2018-11-02T00:47:57.491Z,1.20
2018-11-02T00:48:57.551Z,1.10
2018-11-02T00:49:57.607Z,0.90
2018-11-02T00:50:57.665Z,0.70
2018-11-02T00:51:57.722Z,0.90
2018-11-02T00:52:57.781Z,1.00
2018-11-02T00:53:57.838Z,1.00
2018-11-02T00:54:57.895Z,1.00
2018-11-02T00:55:57.952Z,1.70
2018-11-02T00:56:58.011Z,1.30
2018-11-02T00:57:58.112Z,0.80
2018-11-02T00:58:58.125Z,1.00
2018-11-02T00:59:58.183Z,1.20
2018-11-02T01:00:58.240Z,1.30
2018-11-02T01:01:58.297Z,1.40
2018-11-02T01:02:58.355Z,1.20
2018-11-02T01:03:58.414Z,1.00
2018-11-02T01:04:58.471Z,1.00
2018-11-02T01:05:58.528Z,1.10
2018-11-02T01:06:58.588Z,1.00
2018-11-02T01:07:58.644Z,1.00
2018-11-02T01:08:58.703Z,1.10
2018-11-02T01:09:58.762Z,0.90
2018-11-02T01:10:58.816Z,1.20
2018-11-02T01:11:58.874Z,1.30
2018-11-02T01:12:58.931Z,1.00
2018-11-02T01:13:58.988Z,1.20
2018-11-02T01:14:59.048Z,1.00
2018-11-02T01:15:59.105Z,1.20
2018-11-02T01:16:59.163Z,1.10
2018-11-02T01:17:59.220Z,1.20
2018-11-02T01:18:59.277Z,1.20
2018-11-02T01:19:59.334Z,1.10
2018-11-02T01:20:59.394Z,1.10
2018-11-02T01:21:59.450Z,1.30
2018-11-02T01:22:59.508Z,1.30
2018-11-02T01:23:59.567Z,1.10
2018-11-02T01:24:59.623Z,1.20
2018-11-02T01:25:59.679Z,1.10
2018-11-02T01:26:59.738Z,1.20
2018-11-02T01:27:59.796Z,1.30
2018-11-02T01:28:59.853Z,1.10
2018-11-02T01:29:59.911Z,1.20
2018-11-02T01:30:59.967Z,1.00
2018-11-02T01:32:00.026Z,1.10
2018-11-02T01:33:00.084Z,1.20
2018-11-02T01:34:00.140Z,1.20
2018-11-02T01:35:00.198Z,1.10
2018-11-02T01:36:00.257Z,1.20
2018-11-02T01:37:00.313Z,1.30
2018-11-02T01:38:00.370Z,1.20
2018-11-02T01:39:00.428Z,1.30
2018-11-02T01:40:00.486Z,1.20
2018-11-02T01:41:00.544Z,1.10
2018-11-02T01:42:00.600Z,1.30
2018-11-02T01:43:00.657Z,1.10
2018-11-02T01:44:00.716Z,1.20
2018-11-02T01:45:00.774Z,1.00
2018-11-02T01:46:00.830Z,1.00
2018-11-02T01:47:00.900Z,1.10
2018-11-02T01:48:00.946Z,1.10
2018-11-02T01:49:01.005Z,1.00
2018-11-02T01:50:01.064Z,1.20
2018-11-02T01:51:01.119Z,1.40
2018-11-02T01:52:01.178Z,1.20
2018-11-02T01:53:01.234Z,1.10
2018-11-02T01:54:01.294Z,1.20
2018-11-02T01:55:01.349Z,1.00
2018-11-02T01:56:01.408Z,1.20
2018-11-02T01:57:01.466Z,1.20
2018-11-02T01:58:01.522Z,1.30
2018-11-02T01:59:01.581Z,1.50
2018-11-02T02:00:01.639Z,1.20
2018-11-02T02:01:01.711Z,1.40
2018-11-02T02:02:01.752Z,1.10
2018-11-02T02:03:01.811Z,1.40
2018-11-02T02:04:01.869Z,1.60
2018-11-02T02:05:01.930Z,1.30
2018-11-02T02:06:01.983Z,1.20
2018-11-02T02:07:02.039Z,1.20
2018-11-02T02:08:02.100Z,1.70
2018-11-02T02:09:02.158Z,1.30
2018-11-02T02:10:02.220Z,1.40
2018-11-02T02:11:02.273Z,1.20
2018-11-02T02:12:02.329Z,1.20
2018-11-02T02:13:02.389Z,1.50
2018-11-02T02:14:02.444Z,1.20
2018-11-02T02:15:02.502Z,1.40
2018-11-02T02:16:02.558Z,1.20
2018-11-02T02:17:02.868Z,1.30
2018-11-02T02:18:02.673Z,1.10
2018-11-02T02:19:02.731Z,1.10
2018-11-02T02:20:02.790Z,1.50
2018-11-02T02:21:02.847Z,1.50
2018-11-02T02:22:02.903Z,1.50
2018-11-02T02:23:02.963Z,1.40
2018-11-02T02:24:03.024Z,1.60
2018-11-02T02:25:03.077Z,1.20
2018-11-02T02:26:03.133Z,1.30
2018-11-02T02:27:03.196Z,1.20
2018-11-02T02:28:03.250Z,1.40
2018-11-02T02:29:03.310Z,1.30
2018-11-02T02:30:03.364Z,1.60
2018-11-02T02:31:03.423Z,1.60
2018-11-02T02:32:03.482Z,1.20
2018-11-02T02:33:03.538Z,1.30
2018-11-02T02:34:03.595Z,1.30
2018-11-02T02:35:03.652Z,1.50
2018-11-02T02:36:03.710Z,1.20
2018-11-02T02:37:03.768Z,1.40
2018-11-02T02:38:03.855Z,1.50
2018-11-02T02:39:03.881Z,1.60
2018-11-02T02:40:03.939Z,1.50
2018-11-02T02:41:03.997Z,1.40
2018-11-02T02:42:04.055Z,1.20
2018-11-02T02:43:04.134Z,2.00
2018-11-02T02:44:04.168Z,1.90
2018-11-02T02:45:04.227Z,1.60
2018-11-02T02:46:04.284Z,1.60
2018-11-02T02:47:04.359Z,1.30
2018-11-02T02:48:04.400Z,1.60
2018-11-02T02:49:04.456Z,1.50
2018-11-02T02:50:04.512Z,1.40
2018-11-02T02:51:04.602Z,1.70
2018-11-02T02:52:04.627Z,1.80
2018-11-02T02:53:04.685Z,1.90
2018-11-02T02:54:04.749Z,1.60
2018-11-02T02:55:04.801Z,1.90
2018-11-02T02:56:04.877Z,1.80
2018-11-02T02:57:04.915Z,1.50
2018-11-02T02:58:04.973Z,1.50
2018-11-02T02:59:05.033Z,1.60
2018-11-02T03:00:05.089Z,1.30
2018-11-02T03:01:05.152Z,1.50
2018-11-02T03:02:05.201Z,1.50
2018-11-02T03:03:05.262Z,1.70
2018-11-02T03:04:05.317Z,1.80
2018-11-02T03:05:05.375Z,2.00
2018-11-02T03:06:05.433Z,1.70
2018-11-02T03:07:05.489Z,1.70
2018-11-02T03:08:05.560Z,1.60
2018-11-02T03:09:05.603Z,2.20
2018-11-02T03:10:05.660Z,2.00
2018-11-02T03:11:06.033Z,2.10
2018-11-02T03:12:05.776Z,1.90
2018-11-02T03:13:05.836Z,1.50
2018-11-02T03:14:05.891Z,1.60
2018-11-02T03:15:05.957Z,1.90
2018-11-02T03:16:06.007Z,2.10
2018-11-02T03:17:06.062Z,1.70
2018-11-02T03:18:06.122Z,1.90
2018-11-02T03:19:06.177Z,1.80
2018-11-02T03:20:06.248Z,2.00
2018-11-02T03:21:06.294Z,1.90
2018-11-02T03:22:06.350Z,1.90
2018-11-02T03:23:06.419Z,1.80
2018-11-02T03:24:06.481Z,1.80
2018-11-02T03:25:06.527Z,2.40
2018-11-02T03:26:06.577Z,2.20
2018-11-02T03:27:06.634Z,2.10
2018-11-02T03:28:06.692Z,2.50
2018-11-02T03:29:06.750Z,2.20
2018-11-02T03:30:06.808Z,2.50
2018-11-02T03:31:06.934Z,2.20
2018-11-02T03:32:06.922Z,2.10
2018-11-02T03:33:06.980Z,2.00
2018-11-02T03:34:07.093Z,1.90
2018-11-02T03:35:07.093Z,2.00
2018-11-02T03:36:07.150Z,1.90
2018-11-02T03:37:07.208Z,2.10
2018-11-02T03:38:07.267Z,2.10
2018-11-02T03:39:07.322Z,2.70
2018-11-02T03:40:07.381Z,2.20
2018-11-02T03:41:07.437Z,2.30
2018-11-02T03:42:07.494Z,1.90
2018-11-02T03:43:07.554Z,2.20
2018-11-02T03:44:07.609Z,2.50
2018-11-02T03:45:07.666Z,2.40
2018-11-02T03:46:07.723Z,2.30
2018-11-02T03:47:07.780Z,2.50
2018-11-02T03:48:07.838Z,1.80
2018-11-02T03:49:07.895Z,1.80
2018-11-02T03:50:07.951Z,2.20
2018-11-02T03:51:08.011Z,1.90
2018-11-02T03:52:08.068Z,2.30
2018-11-02T03:53:08.125Z,2.60
2018-11-02T03:54:08.181Z,2.10
2018-11-02T03:55:08.239Z,2.00
2018-11-02T03:56:08.302Z,2.20
2018-11-02T03:57:08.355Z,2.30
2018-11-02T03:58:08.410Z,2.10
2018-11-02T03:59:08.466Z,2.20
2018-11-02T04:00:08.536Z,2.90
2018-11-02T04:01:08.587Z,2.50
2018-11-02T04:02:08.683Z,2.50
2018-11-02T04:03:08.697Z,2.20
2018-11-02T04:04:08.754Z,2.40
2018-11-02T04:05:08.815Z,2.60
2018-11-02T04:06:08.887Z,2.40
2018-11-02T04:07:08.926Z,2.70
2018-11-02T04:08:08.987Z,2.10
2018-11-02T04:09:09.041Z,2.20
2018-11-02T04:10:09.098Z,2.40
2018-11-02T04:11:09.156Z,2.10
2018-11-02T04:12:09.240Z,2.40
2018-11-02T04:13:09.274Z,2.70
2018-11-02T04:14:09.330Z,2.30
2018-11-02T04:15:09.385Z,2.40
2018-11-02T04:16:09.442Z,2.50
2018-11-02T04:17:09.501Z,2.50
2018-11-02T04:18:09.560Z,2.20
2018-11-02T04:19:09.614Z,2.40
2018-11-02T04:20:09.672Z,2.40
2018-11-02T04:21:09.729Z,2.40
2018-11-02T04:22:09.785Z,2.10
2018-11-02T04:23:09.845Z,2.40
2018-11-02T04:24:09.901Z,2.60
2018-11-02T04:25:09.957Z,2.50
2018-11-02T04:26:10.015Z,2.70
2018-11-02T04:27:10.072Z,2.30
2018-11-02T04:28:10.133Z,2.40
2018-11-02T04:29:10.187Z,2.30
2018-11-02T04:30:10.244Z,2.70
2018-11-02T04:31:10.394Z,2.80
2018-11-02T04:32:10.359Z,2.40
2018-11-02T04:33:10.417Z,2.90
2018-11-02T04:34:10.474Z,2.60
2018-11-02T04:35:10.531Z,2.60
2018-11-02T04:36:10.590Z,2.80
2018-11-02T04:37:10.646Z,2.90
2018-11-02T04:38:10.702Z,2.20
2018-11-02T04:39:10.760Z,2.60
2018-11-02T04:40:10.817Z,2.50
2018-11-02T04:41:10.874Z,2.80
2018-11-02T04:42:10.931Z,2.40
2018-11-02T04:43:10.989Z,2.50
2018-11-02T04:44:11.046Z,2.70
2018-11-02T04:45:11.104Z,2.30
2018-11-02T04:46:11.161Z,3.30
2018-11-02T04:47:11.219Z,2.50
2018-11-02T04:48:11.318Z,2.90
2018-11-02T04:49:11.333Z,2.80
2018-11-02T04:50:11.396Z,2.40
2018-11-02T04:51:11.565Z,2.20
2018-11-02T04:52:11.505Z,2.70
2018-11-02T04:53:11.564Z,2.70
2018-11-02T04:54:11.619Z,2.40
2018-11-02T04:55:11.676Z,2.70
2018-11-02T04:56:11.734Z,2.80
2018-11-02T04:57:11.795Z,2.80
2018-11-02T04:58:11.889Z,3.00
2018-11-02T04:59:11.907Z,2.90
2018-11-02T05:00:11.985Z,2.30
2018-11-02T05:01:12.043Z,2.60
2018-11-02T05:02:12.077Z,2.90
2018-11-02T05:03:12.135Z,3.00
2018-11-02T05:04:12.192Z,2.70
2018-11-02T05:05:12.249Z,2.70
2018-11-02T05:06:12.325Z,3.20
2018-11-02T05:07:12.389Z,2.30
2018-11-02T05:08:12.423Z,2.80
2018-11-02T05:09:12.478Z,2.90
2018-11-02T05:10:12.535Z,3.30
2018-11-02T05:11:12.632Z,3.20
2018-11-02T05:12:12.651Z,2.60
2018-11-02T05:13:12.709Z,3.20
2018-11-02T05:14:12.764Z,2.90
2018-11-02T05:15:12.822Z,3.40
2018-11-02T05:16:12.878Z,2.80
2018-11-02T05:17:12.935Z,2.70
2018-11-02T05:18:12.992Z,3.10
2018-11-02T05:19:13.050Z,2.80
2018-11-02T05:20:13.107Z,3.10
2018-11-02T05:21:13.229Z,3.10
2018-11-02T05:22:13.222Z,3.20
2018-11-02T05:23:13.282Z,3.50
2018-11-02T05:24:13.337Z,3.30
2018-11-02T05:25:13.395Z,3.20
2018-11-02T05:26:13.451Z,3.60
2018-11-02T05:27:13.510Z,3.30
2018-11-02T05:28:13.572Z,2.80
2018-11-02T05:29:13.624Z,3.30
2018-11-02T05:30:13.680Z,3.80
2018-11-02T05:31:13.989Z,3.70
2018-11-02T05:32:13.796Z,3.60
2018-11-02T05:33:13.852Z,3.40
2018-11-02T05:34:13.909Z,3.30
2018-11-02T05:35:13.966Z,2.80
2018-11-02T05:36:14.026Z,3.20
2018-11-02T05:37:14.081Z,3.10
2018-11-02T05:38:14.138Z,3.00
2018-11-02T05:39:14.204Z,2.70
2018-11-02T05:40:14.252Z,2.90
2018-11-02T05:41:14.310Z,2.90
2018-11-02T05:42:14.366Z,2.80
2018-11-02T05:43:14.424Z,2.90
2018-11-02T05:44:14.482Z,2.90
2018-11-02T05:45:14.846Z,2.90
2018-11-02T05:46:15.219Z,3.20
2018-11-02T05:47:14.701Z,3.20
2018-11-02T05:48:14.710Z,3.20
2018-11-02T05:49:14.766Z,3.10
2018-11-02T05:50:14.824Z,3.60
2018-11-02T05:51:15.134Z,3.00
2018-11-02T05:52:14.941Z,2.90
2018-11-02T05:53:14.995Z,3.70
2018-11-02T05:54:15.163Z,3.70
2018-11-02T05:55:15.109Z,3.60
2018-11-02T05:56:15.193Z,3.50
2018-11-02T05:57:15.223Z,3.80
2018-11-02T05:58:15.281Z,3.30
2018-11-02T05:59:15.338Z,3.30
2018-11-02T06:00:15.401Z,3.40
2018-11-02T06:01:15.523Z,3.30
2018-11-02T06:02:15.509Z,3.50
2018-11-02T06:03:15.575Z,3.30
2018-11-02T06:04:15.624Z,3.40
2018-11-02T06:05:15.681Z,3.20
2018-11-02T06:06:15.740Z,3.30
2018-11-02T06:07:15.794Z,3.50
2018-11-02T06:08:15.853Z,3.40
2018-11-02T06:09:15.909Z,3.90
2018-11-02T06:10:15.965Z,3.50
2018-11-02T06:11:16.022Z,3.10
2018-11-02T06:12:16.080Z,3.70
2018-11-02T06:13:16.137Z,3.70
2018-11-02T06:14:16.233Z,3.40
2018-11-02T06:15:16.253Z,3.50
2018-11-02T06:16:16.309Z,3.60
2018-11-02T06:17:16.674Z,3.90
2018-11-02T06:18:16.421Z,3.70
2018-11-02T06:19:16.479Z,3.80
2018-11-02T06:20:16.535Z,3.20
2018-11-02T06:21:16.629Z,3.40
2018-11-02T06:22:16.650Z,4.30
2018-11-02T06:23:16.706Z,3.50
2018-11-02T06:24:16.806Z,3.90
2018-11-02T06:25:16.866Z,3.60
2018-11-02T06:26:16.878Z,4.40
2018-11-02T06:27:16.936Z,3.80
2018-11-02T06:28:16.992Z,3.20
2018-11-02T06:29:17.049Z,3.70
2018-11-02T06:30:17.418Z,4.00
2018-11-02T06:31:17.163Z,3.70
2018-11-02T06:32:17.232Z,3.70
2018-11-02T06:33:17.281Z,3.60
2018-11-02T06:34:17.378Z,3.80
2018-11-02T06:35:17.395Z,4.40
2018-11-02T06:36:17.598Z,3.70
2018-11-02T06:37:17.538Z,3.80
2018-11-02T06:38:17.561Z,3.50
2018-11-02T06:39:17.652Z,3.30
2018-11-02T06:40:17.676Z,3.40
2018-11-02T06:41:17.734Z,3.30
2018-11-02T06:42:17.790Z,3.20
2018-11-02T06:43:17.847Z,3.40
2018-11-02T06:44:17.905Z,3.10
2018-11-02T06:45:18.083Z,3.80
2018-11-02T06:46:18.018Z,3.40
2018-11-02T06:47:18.098Z,3.40
2018-11-02T06:48:18.162Z,3.50
2018-11-02T06:49:18.191Z,3.80
2018-11-02T06:50:18.248Z,3.60
2018-11-02T06:51:18.304Z,3.30
2018-11-02T06:52:18.362Z,3.80
2018-11-02T06:53:18.420Z,3.50
2018-11-02T06:54:18.475Z,3.40
2018-11-02T06:55:18.533Z,3.60
2018-11-02T06:56:18.590Z,3.50
2018-11-02T06:57:18.651Z,3.50
2018-11-02T06:58:18.704Z,3.60
2018-11-02T06:59:18.828Z,3.70
2018-11-02T07:00:18.876Z,3.40
2018-11-02T07:01:18.876Z,3.50
2018-11-02T07:02:18.932Z,3.60
2018-11-02T07:03:18.989Z,3.40
2018-11-02T07:04:19.048Z,3.70
2018-11-02T07:05:19.105Z,3.40
2018-11-02T07:06:19.159Z,3.40
2018-11-02T07:07:19.397Z,3.50
2018-11-02T07:08:19.360Z,3.80
2018-11-02T07:09:19.332Z,3.70
2018-11-02T07:10:19.390Z,3.80
2018-11-02T07:11:19.446Z,3.60
2018-11-02T07:12:19.502Z,3.80
2018-11-02T07:13:19.563Z,4.00
2018-11-02T07:14:19.616Z,3.60
2018-11-02T07:15:19.687Z,4.20
2018-11-02T07:16:19.731Z,3.50
2018-11-02T07:17:19.790Z,3.90
2018-11-02T07:18:19.857Z,3.70
2018-11-02T07:19:19.902Z,3.90
2018-11-02T07:20:19.961Z,3.80
2018-11-02T07:21:20.018Z,3.80
2018-11-02T07:22:20.081Z,3.30
2018-11-02T07:23:20.130Z,4.10
2018-11-02T07:24:20.187Z,3.80
2018-11-02T07:25:20.299Z,3.80
2018-11-02T07:26:20.303Z,4.10
2018-11-02T07:27:20.358Z,3.80
2018-11-02T07:28:20.416Z,3.70
2018-11-02T07:29:20.473Z,3.80
2018-11-02T07:30:20.529Z,3.90
2018-11-02T07:31:20.585Z,3.90
2018-11-02T07:32:20.645Z,4.10
2018-11-02T07:33:20.701Z,4.10
2018-11-02T07:34:20.775Z,3.90
2018-11-02T07:35:20.815Z,4.30
2018-11-02T07:36:20.873Z,4.00
2018-11-02T07:37:20.934Z,3.80
2018-11-02T07:38:20.987Z,3.70
2018-11-02T07:39:21.044Z,3.80
2018-11-02T07:40:21.103Z,3.40
2018-11-02T07:41:21.158Z,3.70
2018-11-02T07:42:21.215Z,3.50
2018-11-02T07:43:21.273Z,4.40
2018-11-02T07:44:21.789Z,3.90
2018-11-02T07:45:21.389Z,3.80
2018-11-02T07:46:21.444Z,3.90
2018-11-02T07:47:21.506Z,3.70
2018-11-02T07:48:21.581Z,3.60
2018-11-02T07:49:21.651Z,3.70
2018-11-02T07:50:21.678Z,3.60
2018-11-02T07:51:21.745Z,3.60
2018-11-02T07:52:21.791Z,3.20
2018-11-02T07:53:21.856Z,3.40
2018-11-02T07:54:21.904Z,3.50
2018-11-02T07:55:21.982Z,3.80
2018-11-02T07:56:22.038Z,4.20
2018-11-02T07:57:22.077Z,3.70
2018-11-02T07:58:22.134Z,3.30
2018-11-02T07:59:22.193Z,3.80
2018-11-02T08:00:22.250Z,3.50
2018-11-02T08:01:22.308Z,3.80
2018-11-02T08:02:22.363Z,3.90
2018-11-02T08:03:22.420Z,3.90
2018-11-02T08:04:22.479Z,3.60
2018-11-02T08:05:22.546Z,3.80
2018-11-02T08:06:22.594Z,4.20
2018-11-02T08:07:22.652Z,4.10
2018-11-02T08:08:22.708Z,3.80
2018-11-02T08:09:22.768Z,4.10
2018-11-02T08:10:22.824Z,4.50
2018-11-02T08:11:22.985Z,4.30
2018-11-02T08:12:22.938Z,4.10
2018-11-02T08:13:22.996Z,3.80
2018-11-02T08:14:23.053Z,4.40
2018-11-02T08:15:23.111Z,4.60
2018-11-02T08:16:23.169Z,4.00
2018-11-02T08:17:23.240Z,4.30
2018-11-02T08:18:23.285Z,4.40
2018-11-02T08:19:23.340Z,4.30
2018-11-02T08:20:23.398Z,4.70
2018-11-02T08:21:23.457Z,5.10
2018-11-02T08:22:23.514Z,4.10
2018-11-02T08:23:24.374Z,4.50
2018-11-02T08:24:24.071Z,4.90
2018-11-02T08:25:23.687Z,4.50
2018-11-02T08:26:23.750Z,4.60
2018-11-02T08:27:23.802Z,3.70
2018-11-02T08:28:23.860Z,4.80
2018-11-02T08:29:23.919Z,4.60
2018-11-02T08:30:23.975Z,4.90
2018-11-02T08:31:24.033Z,5.30
2018-11-02T08:32:24.091Z,4.40
2018-11-02T08:33:24.148Z,4.50
2018-11-02T08:34:24.205Z,4.80
2018-11-02T08:35:24.265Z,4.40
2018-11-02T08:36:24.322Z,4.40
2018-11-02T08:37:24.381Z,3.80
2018-11-02T08:38:24.964Z,4.20
2018-11-02T08:39:25.183Z,3.60
2018-11-02T08:40:25.056Z,4.20
2018-11-02T08:41:25.152Z,4.10
2018-11-02T08:42:25.350Z,4.70
2018-11-02T08:43:24.727Z,4.50
2018-11-02T08:44:24.785Z,4.20
2018-11-02T08:45:24.842Z,4.20
2018-11-02T08:46:24.908Z,5.00
2018-11-02T08:47:24.958Z,4.80
2018-11-02T08:48:25.017Z,4.40
2018-11-02T08:49:25.075Z,4.20
2018-11-02T08:50:25.133Z,4.70
2018-11-02T08:51:25.192Z,4.80
2018-11-02T08:52:25.283Z,4.40
2018-11-02T08:53:25.313Z,4.70
2018-11-02T08:54:25.367Z,4.50
2018-11-02T08:55:25.425Z,4.50
2018-11-02T08:56:25.484Z,4.80
2018-11-02T08:57:25.543Z,4.60
2018-11-02T08:58:25.742Z,4.90
2018-11-02T08:59:25.817Z,4.40
2018-11-02T09:00:26.251Z,4.90
2018-11-02T09:01:26.462Z,4.80
2018-11-02T09:02:25.836Z,4.40
2018-11-02T09:03:26.435Z,4.00
2018-11-02T09:04:25.998Z,3.60
2018-11-02T09:05:26.013Z,3.50
2018-11-02T09:06:26.072Z,3.60
2018-11-02T09:07:26.131Z,3.40
2018-11-02T09:08:26.191Z,3.30
2018-11-02T09:09:26.250Z,3.30
2018-11-02T09:10:26.308Z,3.50
2018-11-02T09:11:26.368Z,3.80
2018-11-02T09:12:26.429Z,3.50
2018-11-02T09:13:26.486Z,3.30
2018-11-02T09:14:26.548Z,3.40
2018-11-02T09:15:26.607Z,3.20
2018-11-02T09:16:26.667Z,3.20
2018-11-02T09:17:26.727Z,3.20
2018-11-02T09:18:26.845Z,3.50
2018-11-02T09:19:26.936Z,3.10
2018-11-02T09:20:26.903Z,2.90
2018-11-02T09:21:27.101Z,4.20
2018-11-02T09:22:27.023Z,3.00
2018-11-02T09:23:27.082Z,3.50
2018-11-02T09:24:27.142Z,3.30
2018-11-02T09:25:27.203Z,3.00
2018-11-02T09:26:27.265Z,3.00
2018-11-02T09:27:27.335Z,3.10
2018-11-02T09:28:27.380Z,3.00
2018-11-02T09:29:27.444Z,3.00
2018-11-02T09:30:27.539Z,3.00
2018-11-02T09:31:27.560Z,3.20
2018-11-02T09:32:28.157Z,2.90
2018-11-02T09:33:27.680Z,2.80
2018-11-02T09:34:27.738Z,2.90
2018-11-02T09:35:27.799Z,2.90
2018-11-02T09:36:27.859Z,2.70
2018-11-02T09:37:27.919Z,3.00
2018-11-02T09:38:28.303Z,2.80
2018-11-02T09:39:28.071Z,2.90
2018-11-02T09:40:28.187Z,2.90
2018-11-02T09:41:28.167Z,2.60
2018-11-02T09:42:28.248Z,2.70
2018-11-02T09:43:28.281Z,2.40
2018-11-02T09:44:28.338Z,2.80
2018-11-02T09:45:28.398Z,2.70
2018-11-02T09:46:28.458Z,2.70
2018-11-02T09:47:28.519Z,3.10
2018-11-02T09:48:28.577Z,2.70
2018-11-02T09:49:28.638Z,2.80
2018-11-02T09:50:28.701Z,2.80
2018-11-02T09:51:28.828Z,3.10
2018-11-02T09:52:28.818Z,3.20
2018-11-02T09:53:29.580Z,3.00
2018-11-02T09:54:28.936Z,2.90
2018-11-02T09:55:28.996Z,2.80
2018-11-02T09:56:29.057Z,2.30
2018-11-02T09:57:29.156Z,2.60
2018-11-02T09:58:29.175Z,2.60
2018-11-02T09:59:29.235Z,3.00
2018-11-02T10:00:29.296Z,2.80
2018-11-02T10:01:29.357Z,3.10
2018-11-02T10:02:29.427Z,2.70
2018-11-02T10:03:29.474Z,3.00
2018-11-02T10:04:29.535Z,3.30
2018-11-02T10:05:30.313Z,2.80
2018-11-02T10:06:30.375Z,3.00
2018-11-02T10:07:30.474Z,3.20
2018-11-02T10:08:30.440Z,3.80
2018-11-02T10:09:29.835Z,3.20
2018-11-02T10:10:29.892Z,3.60
2018-11-02T10:11:29.954Z,3.40
2018-11-02T10:12:30.020Z,3.20
2018-11-02T10:13:30.076Z,3.10
2018-11-02T10:14:30.133Z,3.20
2018-11-02T10:15:30.192Z,2.70
2018-11-02T10:16:30.253Z,2.70
2018-11-02T10:17:30.313Z,2.90
2018-11-02T10:18:30.372Z,2.70
2018-11-02T10:19:30.431Z,3.10
2018-11-02T10:20:30.491Z,2.90
2018-11-02T10:21:30.553Z,2.90
2018-11-02T10:22:30.609Z,2.90
2018-11-02T10:23:30.669Z,2.70
2018-11-02T10:24:30.730Z,3.00
2018-11-02T10:25:30.788Z,2.60
2018-11-02T10:26:30.846Z,2.80
2018-11-02T10:27:30.906Z,2.70
2018-11-02T10:28:30.964Z,2.50
2018-11-02T10:29:31.024Z,2.70
2018-11-02T10:30:31.084Z,2.60
2018-11-02T10:31:31.142Z,2.50
2018-11-02T10:32:31.202Z,2.80
2018-11-02T10:33:31.260Z,3.10
2018-11-02T10:34:31.319Z,3.20
2018-11-02T10:35:31.529Z,2.70
2018-11-02T10:36:31.438Z,2.70
2018-11-02T10:37:31.499Z,2.70
2018-11-02T10:38:31.862Z,2.30
2018-11-02T10:39:31.632Z,2.60
2018-11-02T10:40:31.674Z,2.50
2018-11-02T10:41:31.733Z,2.50
2018-11-02T10:42:31.791Z,2.80
2018-11-02T10:43:31.849Z,2.70
2018-11-02T10:44:32.014Z,2.80
2018-11-02T10:45:32.015Z,2.70
2018-11-02T10:46:32.026Z,3.10
2018-11-02T10:47:32.664Z,3.00
2018-11-02T10:48:32.572Z,3.00
2018-11-02T10:49:32.370Z,2.70
2018-11-02T10:50:32.270Z,2.80
2018-11-02T10:51:32.326Z,2.80
2018-11-02T10:52:32.384Z,2.90
2018-11-02T10:53:32.439Z,2.60
2018-11-02T10:54:33.435Z,2.90
2018-11-02T10:55:32.572Z,3.00
2018-11-02T10:56:32.680Z,3.00
2018-11-02T10:57:32.674Z,2.70
2018-11-02T10:58:32.733Z,3.20
2018-11-02T10:59:32.790Z,3.10
2018-11-02T11:00:33.391Z,3.30
2018-11-02T11:01:33.035Z,2.90
2018-11-02T11:02:32.972Z,3.30
2018-11-02T11:03:33.055Z,2.90
2018-11-02T11:04:33.158Z,3.00
2018-11-02T11:05:33.232Z,3.00
2018-11-02T11:06:33.205Z,2.80
2018-11-02T11:07:33.261Z,2.70
2018-11-02T11:08:33.322Z,2.50
2018-11-02T11:09:33.383Z,2.80
2018-11-02T11:10:33.437Z,2.80
2018-11-02T11:11:33.542Z,2.90
2018-11-02T11:12:33.712Z,3.10
2018-11-02T11:13:33.784Z,2.80
2018-11-02T11:14:33.673Z,3.10
2018-11-02T11:15:33.982Z,2.70
2018-11-02T11:16:33.792Z,3.00
2018-11-02T11:17:33.849Z,3.00
2018-11-02T11:18:33.906Z,3.10
2018-11-02T11:19:33.966Z,2.90
2018-11-02T11:20:34.025Z,3.20
2018-11-02T11:21:34.245Z,3.10
2018-11-02T11:22:34.142Z,2.70
2018-11-02T11:23:34.201Z,3.10
2018-11-02T11:24:34.261Z,3.10
2018-11-02T11:25:34.319Z,3.00
2018-11-02T11:26:34.378Z,3.20
2018-11-02T11:27:34.435Z,3.00
2018-11-02T11:28:34.494Z,2.80
2018-11-02T11:29:34.686Z,3.20
2018-11-02T11:30:35.162Z,3.30
2018-11-02T11:31:35.397Z,3.50
2018-11-02T11:32:35.655Z,3.60
2018-11-02T11:33:35.360Z,3.30
2018-11-02T11:34:35.498Z,3.60
2018-11-02T11:35:35.626Z,3.30
2018-11-02T11:36:35.779Z,3.30
2018-11-02T11:37:35.728Z,3.10
2018-11-02T11:38:35.971Z,3.50
2018-11-02T11:39:35.168Z,3.60
2018-11-02T11:40:35.198Z,3.50
2018-11-02T11:41:35.256Z,3.60
2018-11-02T11:42:35.314Z,3.40
2018-11-02T11:43:35.387Z,3.40
2018-11-02T11:44:35.436Z,3.50
2018-11-02T11:45:35.492Z,3.50
2018-11-02T11:46:35.549Z,3.60
2018-11-02T11:47:35.609Z,3.80
2018-11-02T11:48:35.760Z,3.60
2018-11-02T11:49:35.727Z,3.50
2018-11-02T11:50:35.787Z,3.50
2018-11-02T11:51:35.845Z,3.40
2018-11-02T11:52:35.904Z,3.40
2018-11-02T11:53:35.963Z,3.60
2018-11-02T11:54:36.116Z,3.80
2018-11-02T11:55:36.080Z,3.50
2018-11-02T11:56:36.139Z,3.80
2018-11-02T11:57:36.199Z,3.80
2018-11-02T11:58:36.256Z,3.00
2018-11-02T11:59:36.316Z,3.40
2018-11-02T12:00:36.375Z,2.90
2018-11-02T12:01:36.434Z,3.20
2018-11-02T12:02:36.493Z,3.10
2018-11-02T12:03:36.552Z,3.30
2018-11-02T12:04:36.644Z,3.00
2018-11-02T12:05:36.677Z,3.40
2018-11-02T12:06:36.732Z,3.40
2018-11-02T12:07:36.844Z,3.70
2018-11-02T12:08:36.847Z,3.10
2018-11-02T12:09:36.906Z,3.20
2018-11-02T12:10:36.965Z,3.10
2018-11-02T12:11:37.027Z,3.30
2018-11-02T12:12:37.130Z,2.80
2018-11-02T12:13:37.142Z,3.20
2018-11-02T12:14:37.200Z,3.60
2018-11-02T12:15:37.260Z,2.80
2018-11-02T12:16:37.320Z,3.30
2018-11-02T12:17:37.378Z,3.20
2018-11-02T12:18:37.437Z,3.10
2018-11-02T12:19:37.495Z,3.10
2018-11-02T12:20:37.555Z,3.00
2018-11-02T12:21:37.651Z,3.10
2018-11-02T12:22:37.672Z,2.90
2018-11-02T12:23:37.731Z,3.20
2018-11-02T12:24:37.791Z,2.90
2018-11-02T12:25:37.849Z,3.10
2018-11-02T12:26:37.940Z,3.50
2018-11-02T12:27:37.967Z,3.60
2018-11-02T12:28:38.087Z,3.80
2018-11-02T12:29:38.112Z,3.10
2018-11-02T12:30:38.171Z,2.60
2018-11-02T12:31:38.203Z,2.70
2018-11-02T12:32:38.262Z,2.80
2018-11-02T12:33:38.321Z,2.90
2018-11-02T12:34:38.381Z,2.60
2018-11-02T12:35:38.440Z,3.00
2018-11-02T12:36:38.498Z,2.80
2018-11-02T12:37:38.558Z,2.70
2018-11-02T12:38:38.652Z,2.50
2018-11-02T12:39:38.709Z,2.30
2018-11-02T12:41:26.189Z,2.40
2018-11-02T12:42:26.253Z,2.30
2018-11-02T12:43:26.433Z,2.30
2018-11-02T12:44:26.367Z,2.50
2018-11-02T12:45:27.000Z,2.40
2018-11-02T12:46:26.488Z,2.40
2018-11-02T12:47:26.543Z,2.40
2018-11-02T12:48:26.655Z,2.50
2018-11-02T12:49:27.069Z,2.60
2018-11-02T12:50:26.880Z,2.50
2018-11-02T12:51:26.783Z,2.60
2018-11-02T12:52:26.839Z,2.20
2018-11-02T12:53:26.898Z,2.20
2018-11-02T12:54:26.959Z,2.00
2018-11-02T12:55:27.016Z,2.20
2018-11-02T12:56:27.076Z,2.00
2018-11-02T12:57:27.233Z,2.30
2018-11-02T12:58:27.195Z,2.20
2018-11-02T12:59:27.252Z,2.40
2018-11-02T13:02:53.137Z,2.40
2018-11-02T13:03:53.194Z,2.20
2018-11-02T13:04:53.252Z,2.10
2018-11-02T13:05:53.309Z,2.50
2018-11-02T13:06:53.368Z,2.20
2018-11-02T13:07:53.427Z,2.40
2018-11-02T13:08:53.486Z,2.20
2018-11-02T13:09:53.552Z,2.40
2018-11-02T13:10:53.604Z,2.20
2018-11-02T13:11:53.668Z,2.10
2018-11-02T13:12:53.720Z,2.30
2018-11-02T13:13:53.781Z,3.30
2018-11-02T13:14:53.838Z,2.90
2018-11-02T13:15:54.010Z,3.10
2018-11-02T13:16:53.958Z,2.90
2018-11-02T13:17:54.402Z,3.60
2018-11-02T13:18:54.126Z,2.90
2018-11-02T13:19:54.134Z,2.70
2018-11-02T13:20:54.190Z,2.70
2018-11-02T13:21:54.352Z,2.80
2018-11-02T13:22:54.307Z,2.70